sensor_id;sensor_type;location;lat;lon;timestamp;temperature;humidity
7684;DHT22;3884;48.616;12.872;2022-12-05T00:01:20;4.40;99.90
7684;DHT22;3884;48.616;12.872;2022-12-05T00:03:50;4.30;99.90
7684;DHT22;3884;48.616;12.872;2022-12-05T00:06:18;4.30;99.90
7684;DHT22;3884;48.616;12.872;2022-12-05T00:08:46;4.30;99.90
7684;DHT22;3884;48.616;12.872;2022-12-05T00:11:15;4.30;99.90
7684;DHT22;3884;48.616;12.872;2022-12-05T00:13:43;4.30;99.90
7684;DHT22;3884;48.616;12.872;2022-12-05T00:16:11;4.20;99.90
7684;DHT22;3884;48.616;12.872;2022-12-05T00:18:39;4.20;99.90
7684;DHT22;3884;48.616;12.872;2022-12-05T00:21:12;4.20;99.90
7684;DHT22;3884;48.616;12.872;2022-12-05T00:23:39;4.20;99.90
7684;DHT22;3884;48.616;12.872;2022-12-05T00:26:06;4.20;99.90
7684;DHT22;3884;48.616;12.872;2022-12-05T00:28:34;4.10;99.90
7684;DHT22;3884;48.616;12.872;2022-12-05T00:31:01;4.10;99.90
7684;DHT22;3884;48.616;12.872;2022-12-05T00:33:29;4.10;99.90
7684;DHT22;3884;48.616;12.872;2022-12-05T00:36:00;4.10;99.90
7684;DHT22;3884;48.616;12.872;2022-12-05T00:38:29;4.10;99.90
7684;DHT22;3884;48.616;12.872;2022-12-05T00:41:00;4.10;99.90
7684;DHT22;3884;48.616;12.872;2022-12-05T00:43:27;4.10;99.90
7684;DHT22;3884;48.616;12.872;2022-12-05T00:45:54;4.20;99.90
7684;DHT22;3884;48.616;12.872;2022-12-05T00:48:21;4.10;99.90
7684;DHT22;3884;48.616;12.872;2022-12-05T00:50:48;4.10;99.90
7684;DHT22;3884;48.616;12.872;2022-12-05T00:53:15;4.00;99.90
7684;DHT22;3884;48.616;12.872;2022-12-05T00:55:43;4.10;99.90
7684;DHT22;3884;48.616;12.872;2022-12-05T00:58:10;4.10;99.90
7684;DHT22;3884;48.616;12.872;2022-12-05T01:00:37;4.10;99.90
7684;DHT22;3884;48.616;12.872;2022-12-05T01:03:04;4.10;99.90
7684;DHT22;3884;48.616;12.872;2022-12-05T01:05:32;4.00;99.90
7684;DHT22;3884;48.616;12.872;2022-12-05T01:07:59;4.10;99.90
7684;DHT22;3884;48.616;12.872;2022-12-05T01:10:26;4.10;99.90
7684;DHT22;3884;48.616;12.872;2022-12-05T01:12:55;4.10;99.90
7684;DHT22;3884;48.616;12.872;2022-12-05T01:15:22;4.00;99.90
7684;DHT22;3884;48.616;12.872;2022-12-05T01:17:48;4.00;99.90
7684;DHT22;3884;48.616;12.872;2022-12-05T01:20:16;4.00;99.90
7684;DHT22;3884;48.616;12.872;2022-12-05T01:22:43;4.00;99.90
7684;DHT22;3884;48.616;12.872;2022-12-05T01:25:09;4.00;99.90
7684;DHT22;3884;48.616;12.872;2022-12-05T01:27:36;4.10;99.90
7684;DHT22;3884;48.616;12.872;2022-12-05T01:30:06;4.10;99.90
7684;DHT22;3884;48.616;12.872;2022-12-05T01:32:34;4.00;99.90
7684;DHT22;3884;48.616;12.872;2022-12-05T01:35:01;3.90;99.90
7684;DHT22;3884;48.616;12.872;2022-12-05T01:37:28;4.00;99.90
7684;DHT22;3884;48.616;12.872;2022-12-05T01:39:55;4.10;99.90
7684;DHT22;3884;48.616;12.872;2022-12-05T01:42:22;4.00;99.90
7684;DHT22;3884;48.616;12.872;2022-12-05T01:45:04;4.00;99.90
7684;DHT22;3884;48.616;12.872;2022-12-05T01:47:34;3.90;99.90
7684;DHT22;3884;48.616;12.872;2022-12-05T01:50:02;3.80;99.90
7684;DHT22;3884;48.616;12.872;2022-12-05T01:52:30;3.80;99.90
7684;DHT22;3884;48.616;12.872;2022-12-05T01:55:02;3.90;99.90
7684;DHT22;3884;48.616;12.872;2022-12-05T01:57:30;3.90;99.90
7684;DHT22;3884;48.616;12.872;2022-12-05T01:59:59;4.00;99.90
7684;DHT22;3884;48.616;12.872;2022-12-05T02:02:39;4.00;99.90
7684;DHT22;3884;48.616;12.872;2022-12-05T02:05:11;4.00;99.90
7684;DHT22;3884;48.616;12.872;2022-12-05T02:07:40;4.00;99.90
7684;DHT22;3884;48.616;12.872;2022-12-05T02:10:08;4.00;99.90
7684;DHT22;3884;48.616;12.872;2022-12-05T02:12:35;4.00;99.90
7684;DHT22;3884;48.616;12.872;2022-12-05T02:15:19;3.90;99.90
7684;DHT22;3884;48.616;12.872;2022-12-05T02:17:54;3.90;99.90
7684;DHT22;3884;48.616;12.872;2022-12-05T02:20:33;3.90;99.90
7684;DHT22;3884;48.616;12.872;2022-12-05T02:23:40;3.90;99.90
7684;DHT22;3884;48.616;12.872;2022-12-05T02:26:39;3.80;99.90
7684;DHT22;3884;48.616;12.872;2022-12-05T02:29:25;3.80;99.90
7684;DHT22;3884;48.616;12.872;2022-12-05T02:32:03;3.80;99.90
7684;DHT22;3884;48.616;12.872;2022-12-05T02:34:35;3.90;99.90
7684;DHT22;3884;48.616;12.872;2022-12-05T02:37:08;3.80;99.90
7684;DHT22;3884;48.616;12.872;2022-12-05T02:39:41;3.80;99.90
7684;DHT22;3884;48.616;12.872;2022-12-05T02:42:15;3.70;99.90
7684;DHT22;3884;48.616;12.872;2022-12-05T02:44:47;3.60;99.90
7684;DHT22;3884;48.616;12.872;2022-12-05T02:47:20;3.60;99.90
7684;DHT22;3884;48.616;12.872;2022-12-05T02:49:51;3.60;99.90
7684;DHT22;3884;48.616;12.872;2022-12-05T02:52:18;3.70;99.90
7684;DHT22;3884;48.616;12.872;2022-12-05T02:54:48;3.80;99.90
7684;DHT22;3884;48.616;12.872;2022-12-05T02:57:16;3.80;99.90
7684;DHT22;3884;48.616;12.872;2022-12-05T02:59:44;3.70;99.90
7684;DHT22;3884;48.616;12.872;2022-12-05T03:02:24;3.80;99.90
7684;DHT22;3884;48.616;12.872;2022-12-05T03:04:51;3.70;99.90
7684;DHT22;3884;48.616;12.872;2022-12-05T03:07:19;3.70;99.90
7684;DHT22;3884;48.616;12.872;2022-12-05T03:09:51;3.70;99.90
7684;DHT22;3884;48.616;12.872;2022-12-05T03:12:24;3.70;99.90
7684;DHT22;3884;48.616;12.872;2022-12-05T03:14:55;3.60;99.90
7684;DHT22;3884;48.616;12.872;2022-12-05T03:17:30;3.60;99.90
7684;DHT22;3884;48.616;12.872;2022-12-05T03:20:03;3.60;99.90
7684;DHT22;3884;48.616;12.872;2022-12-05T03:22:33;3.60;99.90
7684;DHT22;3884;48.616;12.872;2022-12-05T03:25:03;3.60;99.90
7684;DHT22;3884;48.616;12.872;2022-12-05T03:27:39;3.60;99.90
7684;DHT22;3884;48.616;12.872;2022-12-05T03:30:08;3.50;99.90
7684;DHT22;3884;48.616;12.872;2022-12-05T03:32:41;3.50;99.90
7684;DHT22;3884;48.616;12.872;2022-12-05T03:35:13;3.40;99.90
7684;DHT22;3884;48.616;12.872;2022-12-05T03:37:47;3.40;99.90
7684;DHT22;3884;48.616;12.872;2022-12-05T03:40:30;3.40;99.90
7684;DHT22;3884;48.616;12.872;2022-12-05T03:43:00;3.40;99.90
7684;DHT22;3884;48.616;12.872;2022-12-05T03:45:37;3.40;99.90
7684;DHT22;3884;48.616;12.872;2022-12-05T03:48:12;3.40;99.90
7684;DHT22;3884;48.616;12.872;2022-12-05T03:50:43;3.40;99.90
7684;DHT22;3884;48.616;12.872;2022-12-05T03:53:15;3.40;99.90
7684;DHT22;3884;48.616;12.872;2022-12-05T03:55:44;3.30;99.90
7684;DHT22;3884;48.616;12.872;2022-12-05T03:58:17;3.30;99.90
7684;DHT22;3884;48.616;12.872;2022-12-05T04:00:48;3.30;99.90
7684;DHT22;3884;48.616;12.872;2022-12-05T04:03:22;3.30;99.90
7684;DHT22;3884;48.616;12.872;2022-12-05T04:05:53;3.30;99.90
7684;DHT22;3884;48.616;12.872;2022-12-05T04:08:24;3.30;99.90
7684;DHT22;3884;48.616;12.872;2022-12-05T04:10:54;3.30;99.90
7684;DHT22;3884;48.616;12.872;2022-12-05T04:13:28;3.40;99.90
7684;DHT22;3884;48.616;12.872;2022-12-05T04:15:59;3.30;99.90
7684;DHT22;3884;48.616;12.872;2022-12-05T04:18:52;3.40;99.90
7684;DHT22;3884;48.616;12.872;2022-12-05T04:21:24;3.30;99.90
7684;DHT22;3884;48.616;12.872;2022-12-05T04:24:06;3.30;99.90
7684;DHT22;3884;48.616;12.872;2022-12-05T04:26:59;3.30;99.90
7684;DHT22;3884;48.616;12.872;2022-12-05T04:29:33;3.30;99.90
7684;DHT22;3884;48.616;12.872;2022-12-05T04:32:05;3.20;99.90
7684;DHT22;3884;48.616;12.872;2022-12-05T04:34:36;3.30;99.90
7684;DHT22;3884;48.616;12.872;2022-12-05T04:37:07;3.20;99.90
7684;DHT22;3884;48.616;12.872;2022-12-05T04:39:39;3.30;99.90
7684;DHT22;3884;48.616;12.872;2022-12-05T04:42:09;3.10;99.90
7684;DHT22;3884;48.616;12.872;2022-12-05T04:44:40;3.10;99.90
7684;DHT22;3884;48.616;12.872;2022-12-05T04:47:11;3.00;99.90
7684;DHT22;3884;48.616;12.872;2022-12-05T04:49:42;3.00;99.90
7684;DHT22;3884;48.616;12.872;2022-12-05T04:52:10;3.00;99.90
7684;DHT22;3884;48.616;12.872;2022-12-05T04:54:42;3.00;99.90
7684;DHT22;3884;48.616;12.872;2022-12-05T04:57:12;3.00;99.90
7684;DHT22;3884;48.616;12.872;2022-12-05T04:59:41;3.00;99.90
7684;DHT22;3884;48.616;12.872;2022-12-05T05:02:09;3.00;99.90
7684;DHT22;3884;48.616;12.872;2022-12-05T05:04:41;2.90;99.90
7684;DHT22;3884;48.616;12.872;2022-12-05T05:07:11;2.90;99.90
7684;DHT22;3884;48.616;12.872;2022-12-05T05:09:39;2.90;99.90
7684;DHT22;3884;48.616;12.872;2022-12-05T05:12:07;2.90;99.90
7684;DHT22;3884;48.616;12.872;2022-12-05T05:14:34;2.90;99.90
7684;DHT22;3884;48.616;12.872;2022-12-05T05:17:01;2.90;99.90
7684;DHT22;3884;48.616;12.872;2022-12-05T05:19:28;2.90;99.90
7684;DHT22;3884;48.616;12.872;2022-12-05T05:21:57;2.90;99.90
7684;DHT22;3884;48.616;12.872;2022-12-05T05:24:25;2.90;99.90
7684;DHT22;3884;48.616;12.872;2022-12-05T05:26:52;2.80;99.90
7684;DHT22;3884;48.616;12.872;2022-12-05T05:29:19;2.80;99.90
7684;DHT22;3884;48.616;12.872;2022-12-05T05:31:46;2.80;99.90
7684;DHT22;3884;48.616;12.872;2022-12-05T05:34:13;2.80;99.90
7684;DHT22;3884;48.616;12.872;2022-12-05T05:36:41;2.80;99.90
7684;DHT22;3884;48.616;12.872;2022-12-05T05:39:13;2.70;99.90
7684;DHT22;3884;48.616;12.872;2022-12-05T05:41:41;2.70;99.90
7684;DHT22;3884;48.616;12.872;2022-12-05T05:44:09;2.80;99.90
7684;DHT22;3884;48.616;12.872;2022-12-05T05:46:36;2.80;99.90
7684;DHT22;3884;48.616;12.872;2022-12-05T05:49:03;2.80;99.90
7684;DHT22;3884;48.616;12.872;2022-12-05T05:51:31;2.80;99.90
7684;DHT22;3884;48.616;12.872;2022-12-05T05:53:58;2.70;99.90
7684;DHT22;3884;48.616;12.872;2022-12-05T05:56:27;2.70;99.90
7684;DHT22;3884;48.616;12.872;2022-12-05T05:58:56;2.70;99.90
7684;DHT22;3884;48.616;12.872;2022-12-05T06:01:23;2.70;99.90
7684;DHT22;3884;48.616;12.872;2022-12-05T06:03:51;2.70;99.90
7684;DHT22;3884;48.616;12.872;2022-12-05T06:06:19;2.60;99.90
7684;DHT22;3884;48.616;12.872;2022-12-05T06:08:46;2.60;99.90
7684;DHT22;3884;48.616;12.872;2022-12-05T06:11:15;2.60;99.90
7684;DHT22;3884;48.616;12.872;2022-12-05T06:13:44;2.70;99.90
7684;DHT22;3884;48.616;12.872;2022-12-05T06:16:13;2.50;99.90
7684;DHT22;3884;48.616;12.872;2022-12-05T06:18:40;2.50;99.90
7684;DHT22;3884;48.616;12.872;2022-12-05T06:21:08;2.50;99.90
7684;DHT22;3884;48.616;12.872;2022-12-05T06:23:36;2.50;99.90
7684;DHT22;3884;48.616;12.872;2022-12-05T06:26:05;2.50;99.90
7684;DHT22;3884;48.616;12.872;2022-12-05T06:28:32;2.50;99.90
7684;DHT22;3884;48.616;12.872;2022-12-05T06:31:06;2.50;99.90
7684;DHT22;3884;48.616;12.872;2022-12-05T06:33:33;2.50;99.90
7684;DHT22;3884;48.616;12.872;2022-12-05T06:36:05;2.40;99.90
7684;DHT22;3884;48.616;12.872;2022-12-05T06:38:33;2.40;99.90
7684;DHT22;3884;48.616;12.872;2022-12-05T06:41:03;2.30;99.90
7684;DHT22;3884;48.616;12.872;2022-12-05T06:43:31;2.30;99.90
7684;DHT22;3884;48.616;12.872;2022-12-05T06:46:00;2.30;99.90
7684;DHT22;3884;48.616;12.872;2022-12-05T06:48:29;2.30;99.90
7684;DHT22;3884;48.616;12.872;2022-12-05T06:50:56;2.30;99.90
7684;DHT22;3884;48.616;12.872;2022-12-05T06:53:23;2.30;99.90
7684;DHT22;3884;48.616;12.872;2022-12-05T06:55:57;2.30;99.90
7684;DHT22;3884;48.616;12.872;2022-12-05T06:58:24;2.30;99.90
7684;DHT22;3884;48.616;12.872;2022-12-05T07:00:52;2.30;99.90
7684;DHT22;3884;48.616;12.872;2022-12-05T07:03:37;2.30;99.90
7684;DHT22;3884;48.616;12.872;2022-12-05T07:06:06;2.20;99.90
7684;DHT22;3884;48.616;12.872;2022-12-05T07:08:33;2.20;99.90
7684;DHT22;3884;48.616;12.872;2022-12-05T07:11:00;2.30;99.90
7684;DHT22;3884;48.616;12.872;2022-12-05T07:13:27;2.30;99.90
7684;DHT22;3884;48.616;12.872;2022-12-05T07:15:54;2.40;99.90
7684;DHT22;3884;48.616;12.872;2022-12-05T07:18:23;2.30;99.90
7684;DHT22;3884;48.616;12.872;2022-12-05T07:20:56;2.30;99.90
7684;DHT22;3884;48.616;12.872;2022-12-05T07:23:23;2.30;99.90
7684;DHT22;3884;48.616;12.872;2022-12-05T07:25:51;2.30;99.90
7684;DHT22;3884;48.616;12.872;2022-12-05T07:28:18;2.20;99.90
7684;DHT22;3884;48.616;12.872;2022-12-05T07:30:45;2.20;99.90
7684;DHT22;3884;48.616;12.872;2022-12-05T07:33:12;2.20;99.90
7684;DHT22;3884;48.616;12.872;2022-12-05T07:35:38;2.20;99.90
7684;DHT22;3884;48.616;12.872;2022-12-05T07:38:07;2.20;99.90
7684;DHT22;3884;48.616;12.872;2022-12-05T07:40:36;2.10;99.90
7684;DHT22;3884;48.616;12.872;2022-12-05T07:43:03;2.10;99.90
7684;DHT22;3884;48.616;12.872;2022-12-05T07:45:29;2.10;99.90
7684;DHT22;3884;48.616;12.872;2022-12-05T07:47:56;2.20;99.90
7684;DHT22;3884;48.616;12.872;2022-12-05T07:50:23;2.20;99.90
7684;DHT22;3884;48.616;12.872;2022-12-05T07:52:51;2.20;99.90
7684;DHT22;3884;48.616;12.872;2022-12-05T07:55:19;2.20;99.90
7684;DHT22;3884;48.616;12.872;2022-12-05T07:57:46;2.20;99.90
7684;DHT22;3884;48.616;12.872;2022-12-05T08:00:14;2.10;99.90
7684;DHT22;3884;48.616;12.872;2022-12-05T08:02:41;2.10;99.90
7684;DHT22;3884;48.616;12.872;2022-12-05T08:05:08;2.10;99.90
7684;DHT22;3884;48.616;12.872;2022-12-05T08:07:35;2.10;99.90
7684;DHT22;3884;48.616;12.872;2022-12-05T08:10:03;2.10;99.90
7684;DHT22;3884;48.616;12.872;2022-12-05T08:12:32;2.10;99.90
7684;DHT22;3884;48.616;12.872;2022-12-05T08:14:59;2.10;99.90
7684;DHT22;3884;48.616;12.872;2022-12-05T08:17:28;2.10;99.90
7684;DHT22;3884;48.616;12.872;2022-12-05T08:19:55;2.10;99.90
7684;DHT22;3884;48.616;12.872;2022-12-05T08:22:22;2.00;99.90
7684;DHT22;3884;48.616;12.872;2022-12-05T08:24:49;2.00;99.90
7684;DHT22;3884;48.616;12.872;2022-12-05T08:27:16;2.10;99.90
7684;DHT22;3884;48.616;12.872;2022-12-05T08:29:45;2.10;99.90
7684;DHT22;3884;48.616;12.872;2022-12-05T08:32:12;2.10;99.90
7684;DHT22;3884;48.616;12.872;2022-12-05T08:34:39;2.20;99.90
7684;DHT22;3884;48.616;12.872;2022-12-05T08:37:06;2.20;99.90
7684;DHT22;3884;48.616;12.872;2022-12-05T08:39:32;2.30;99.90
7684;DHT22;3884;48.616;12.872;2022-12-05T08:42:01;2.30;99.90
7684;DHT22;3884;48.616;12.872;2022-12-05T08:44:28;2.20;99.90
7684;DHT22;3884;48.616;12.872;2022-12-05T08:46:56;2.20;99.90
7684;DHT22;3884;48.616;12.872;2022-12-05T08:49:23;2.30;99.90
7684;DHT22;3884;48.616;12.872;2022-12-05T08:51:50;2.30;99.90
7684;DHT22;3884;48.616;12.872;2022-12-05T08:54:17;2.30;99.90
7684;DHT22;3884;48.616;12.872;2022-12-05T08:56:44;2.30;99.90
7684;DHT22;3884;48.616;12.872;2022-12-05T08:59:11;2.40;99.90
7684;DHT22;3884;48.616;12.872;2022-12-05T09:01:38;2.30;99.90
7684;DHT22;3884;48.616;12.872;2022-12-05T09:04:08;2.30;99.90
7684;DHT22;3884;48.616;12.872;2022-12-05T09:06:36;2.30;99.90
7684;DHT22;3884;48.616;12.872;2022-12-05T09:09:05;2.40;99.90
7684;DHT22;3884;48.616;12.872;2022-12-05T09:11:35;2.30;99.90
7684;DHT22;3884;48.616;12.872;2022-12-05T09:14:03;2.30;99.90
7684;DHT22;3884;48.616;12.872;2022-12-05T09:16:31;2.40;99.90
7684;DHT22;3884;48.616;12.872;2022-12-05T09:18:59;2.40;99.90
7684;DHT22;3884;48.616;12.872;2022-12-05T09:21:29;2.40;99.90
7684;DHT22;3884;48.616;12.872;2022-12-05T09:23:58;2.40;99.90
7684;DHT22;3884;48.616;12.872;2022-12-05T09:26:26;2.40;99.90
7684;DHT22;3884;48.616;12.872;2022-12-05T09:28:53;2.40;99.90
7684;DHT22;3884;48.616;12.872;2022-12-05T09:31:22;2.50;99.90
7684;DHT22;3884;48.616;12.872;2022-12-05T09:33:50;2.50;99.90
7684;DHT22;3884;48.616;12.872;2022-12-05T09:36:19;2.50;99.90
7684;DHT22;3884;48.616;12.872;2022-12-05T09:38:48;2.40;99.90
7684;DHT22;3884;48.616;12.872;2022-12-05T09:41:25;2.40;99.90
7684;DHT22;3884;48.616;12.872;2022-12-05T09:44:13;2.40;99.90
7684;DHT22;3884;48.616;12.872;2022-12-05T09:46:49;2.50;99.90
7684;DHT22;3884;48.616;12.872;2022-12-05T09:49:18;2.50;99.90
7684;DHT22;3884;48.616;12.872;2022-12-05T09:51:46;2.60;99.90
7684;DHT22;3884;48.616;12.872;2022-12-05T09:54:16;2.50;99.90
7684;DHT22;3884;48.616;12.872;2022-12-05T09:56:44;2.60;99.90
7684;DHT22;3884;48.616;12.872;2022-12-05T09:59:13;2.60;99.90
7684;DHT22;3884;48.616;12.872;2022-12-05T10:01:46;2.50;99.90
7684;DHT22;3884;48.616;12.872;2022-12-05T10:04:22;2.60;99.90
7684;DHT22;3884;48.616;12.872;2022-12-05T10:07:00;2.70;99.90
7684;DHT22;3884;48.616;12.872;2022-12-05T10:09:40;2.60;99.90
7684;DHT22;3884;48.616;12.872;2022-12-05T10:12:33;2.60;99.90
7684;DHT22;3884;48.616;12.872;2022-12-05T10:15:07;2.70;99.90
7684;DHT22;3884;48.616;12.872;2022-12-05T10:17:40;2.70;99.90
7684;DHT22;3884;48.616;12.872;2022-12-05T10:20:13;2.80;99.90
7684;DHT22;3884;48.616;12.872;2022-12-05T10:22:43;2.80;99.90
7684;DHT22;3884;48.616;12.872;2022-12-05T10:25:16;2.80;99.90
7684;DHT22;3884;48.616;12.872;2022-12-05T10:27:48;2.80;99.90
7684;DHT22;3884;48.616;12.872;2022-12-05T10:30:17;2.90;99.90
7684;DHT22;3884;48.616;12.872;2022-12-05T10:32:50;2.90;99.90
7684;DHT22;3884;48.616;12.872;2022-12-05T10:35:20;3.00;99.90
7684;DHT22;3884;48.616;12.872;2022-12-05T10:37:49;3.00;99.90
7684;DHT22;3884;48.616;12.872;2022-12-05T10:40:19;3.00;99.90
7684;DHT22;3884;48.616;12.872;2022-12-05T10:42:47;3.00;99.90
7684;DHT22;3884;48.616;12.872;2022-12-05T10:45:17;2.90;99.90
7684;DHT22;3884;48.616;12.872;2022-12-05T10:47:45;3.00;99.90
7684;DHT22;3884;48.616;12.872;2022-12-05T10:50:21;3.00;99.90
7684;DHT22;3884;48.616;12.872;2022-12-05T10:52:51;3.10;99.90
7684;DHT22;3884;48.616;12.872;2022-12-05T10:55:19;3.10;99.90
7684;DHT22;3884;48.616;12.872;2022-12-05T10:57:49;3.10;99.90
7684;DHT22;3884;48.616;12.872;2022-12-05T11:00:20;3.20;99.90
7684;DHT22;3884;48.616;12.872;2022-12-05T11:02:48;3.20;99.90
7684;DHT22;3884;48.616;12.872;2022-12-05T11:05:26;3.20;99.90
7684;DHT22;3884;48.616;12.872;2022-12-05T11:07:54;3.30;99.90
7684;DHT22;3884;48.616;12.872;2022-12-05T11:10:25;3.30;99.90
7684;DHT22;3884;48.616;12.872;2022-12-05T11:12:54;3.20;99.90
7684;DHT22;3884;48.616;12.872;2022-12-05T11:15:23;3.20;99.90
7684;DHT22;3884;48.616;12.872;2022-12-05T11:17:51;3.20;99.90
7684;DHT22;3884;48.616;12.872;2022-12-05T11:20:37;3.20;99.90
7684;DHT22;3884;48.616;12.872;2022-12-05T11:23:20;3.30;99.90
7684;DHT22;3884;48.616;12.872;2022-12-05T11:25:50;3.30;99.90
7684;DHT22;3884;48.616;12.872;2022-12-05T11:28:29;3.30;99.90
7684;DHT22;3884;48.616;12.872;2022-12-05T11:30:58;3.30;99.90
7684;DHT22;3884;48.616;12.872;2022-12-05T11:33:26;3.40;99.90
7684;DHT22;3884;48.616;12.872;2022-12-05T11:35:54;3.40;99.90
7684;DHT22;3884;48.616;12.872;2022-12-05T11:38:26;3.40;99.90
7684;DHT22;3884;48.616;12.872;2022-12-05T11:40:59;3.40;99.90
7684;DHT22;3884;48.616;12.872;2022-12-05T11:46:26;3.40;99.90
7684;DHT22;3884;48.616;12.872;2022-12-05T11:49:07;3.40;99.90
7684;DHT22;3884;48.616;12.872;2022-12-05T11:51:43;3.50;99.90
7684;DHT22;3884;48.616;12.872;2022-12-05T11:54:32;3.60;99.90
7684;DHT22;3884;48.616;12.872;2022-12-05T11:57:09;3.60;99.90
7684;DHT22;3884;48.616;12.872;2022-12-05T12:00:02;3.70;99.90
7684;DHT22;3884;48.616;12.872;2022-12-05T12:02:55;3.80;99.90
7684;DHT22;3884;48.616;12.872;2022-12-05T12:05:28;3.80;99.90
7684;DHT22;3884;48.616;12.872;2022-12-05T12:08:02;3.90;99.90
7684;DHT22;3884;48.616;12.872;2022-12-05T12:10:36;3.90;99.90
7684;DHT22;3884;48.616;12.872;2022-12-05T12:13:21;3.80;99.90
7684;DHT22;3884;48.616;12.872;2022-12-05T12:16:00;3.80;99.90
7684;DHT22;3884;48.616;12.872;2022-12-05T12:18:57;3.80;99.90
7684;DHT22;3884;48.616;12.872;2022-12-05T12:21:36;3.80;99.90
7684;DHT22;3884;48.616;12.872;2022-12-05T12:24:11;3.80;99.90
7684;DHT22;3884;48.616;12.872;2022-12-05T12:26:45;3.70;99.90
7684;DHT22;3884;48.616;12.872;2022-12-05T12:29:30;3.70;99.90
7684;DHT22;3884;48.616;12.872;2022-12-05T12:32:12;3.70;99.90
7684;DHT22;3884;48.616;12.872;2022-12-05T12:34:52;3.70;99.90
7684;DHT22;3884;48.616;12.872;2022-12-05T12:37:26;3.80;99.90
7684;DHT22;3884;48.616;12.872;2022-12-05T12:40:04;3.70;99.90
7684;DHT22;3884;48.616;12.872;2022-12-05T12:42:46;3.80;99.90
7684;DHT22;3884;48.616;12.872;2022-12-05T12:45:41;3.80;99.90
7684;DHT22;3884;48.616;12.872;2022-12-05T12:48:25;3.80;99.90
7684;DHT22;3884;48.616;12.872;2022-12-05T12:50:56;3.80;99.90
7684;DHT22;3884;48.616;12.872;2022-12-05T12:53:49;3.80;99.90
7684;DHT22;3884;48.616;12.872;2022-12-05T12:56:29;3.80;99.90
7684;DHT22;3884;48.616;12.872;2022-12-05T12:59:08;3.80;99.90
7684;DHT22;3884;48.616;12.872;2022-12-05T13:01:43;3.80;99.90
7684;DHT22;3884;48.616;12.872;2022-12-05T13:04:14;3.80;99.90
7684;DHT22;3884;48.616;12.872;2022-12-05T13:06:46;3.80;99.90
7684;DHT22;3884;48.616;12.872;2022-12-05T13:09:17;3.90;99.90
7684;DHT22;3884;48.616;12.872;2022-12-05T13:11:49;4.00;99.90
7684;DHT22;3884;48.616;12.872;2022-12-05T13:14:18;4.00;99.90
7684;DHT22;3884;48.616;12.872;2022-12-05T13:16:52;4.00;99.90
7684;DHT22;3884;48.616;12.872;2022-12-05T13:19:26;3.90;99.90
7684;DHT22;3884;48.616;12.872;2022-12-05T13:21:56;4.00;99.90
7684;DHT22;3884;48.616;12.872;2022-12-05T13:24:25;4.00;99.90
7684;DHT22;3884;48.616;12.872;2022-12-05T13:26:56;3.90;99.90
7684;DHT22;3884;48.616;12.872;2022-12-05T13:29:30;3.90;99.90
7684;DHT22;3884;48.616;12.872;2022-12-05T13:31:59;3.90;99.90
7684;DHT22;3884;48.616;12.872;2022-12-05T13:34:43;3.80;99.90
7684;DHT22;3884;48.616;12.872;2022-12-05T13:37:18;3.80;99.90
7684;DHT22;3884;48.616;12.872;2022-12-05T13:40:04;3.80;99.90
7684;DHT22;3884;48.616;12.872;2022-12-05T13:42:58;3.80;99.90
7684;DHT22;3884;48.616;12.872;2022-12-05T13:45:26;3.90;99.90
7684;DHT22;3884;48.616;12.872;2022-12-05T13:48:05;3.90;99.90
7684;DHT22;3884;48.616;12.872;2022-12-05T13:50:43;3.90;99.90
7684;DHT22;3884;48.616;12.872;2022-12-05T13:53:25;3.80;99.90
7684;DHT22;3884;48.616;12.872;2022-12-05T13:56:01;3.80;99.90
7684;DHT22;3884;48.616;12.872;2022-12-05T13:58:46;3.80;99.90
7684;DHT22;3884;48.616;12.872;2022-12-05T14:01:41;3.90;99.90
7684;DHT22;3884;48.616;12.872;2022-12-05T14:07:37;3.90;99.90
7684;DHT22;3884;48.616;12.872;2022-12-05T14:10:05;3.90;99.90
7684;DHT22;3884;48.616;12.872;2022-12-05T14:12:51;4.00;99.90
7684;DHT22;3884;48.616;12.872;2022-12-05T14:15:29;4.00;99.90
7684;DHT22;3884;48.616;12.872;2022-12-05T14:18:02;3.90;99.90
7684;DHT22;3884;48.616;12.872;2022-12-05T14:20:46;3.90;99.90
7684;DHT22;3884;48.616;12.872;2022-12-05T14:23:31;3.90;99.90
7684;DHT22;3884;48.616;12.872;2022-12-05T14:26:11;3.90;99.90
7684;DHT22;3884;48.616;12.872;2022-12-05T14:28:50;3.90;99.90
7684;DHT22;3884;48.616;12.872;2022-12-05T14:31:37;4.00;99.90
7684;DHT22;3884;48.616;12.872;2022-12-05T14:34:22;3.90;99.90
7684;DHT22;3884;48.616;12.872;2022-12-05T14:37:03;3.90;99.90
7684;DHT22;3884;48.616;12.872;2022-12-05T14:39:36;3.90;99.90
7684;DHT22;3884;48.616;12.872;2022-12-05T14:44:50;3.80;99.90
7684;DHT22;3884;48.616;12.872;2022-12-05T14:47:23;3.80;99.90
7684;DHT22;3884;48.616;12.872;2022-12-05T14:49:54;4.00;99.90
7684;DHT22;3884;48.616;12.872;2022-12-05T14:52:25;3.90;99.90
7684;DHT22;3884;48.616;12.872;2022-12-05T14:54:57;3.80;99.90
7684;DHT22;3884;48.616;12.872;2022-12-05T14:57:26;3.80;99.90
7684;DHT22;3884;48.616;12.872;2022-12-05T14:59:57;3.70;99.90
7684;DHT22;3884;48.616;12.872;2022-12-05T15:02:28;3.80;99.90
7684;DHT22;3884;48.616;12.872;2022-12-05T15:05:00;3.90;99.90
7684;DHT22;3884;48.616;12.872;2022-12-05T15:07:33;3.80;99.90
7684;DHT22;3884;48.616;12.872;2022-12-05T15:10:04;3.80;99.90
7684;DHT22;3884;48.616;12.872;2022-12-05T15:12:37;3.80;99.90
7684;DHT22;3884;48.616;12.872;2022-12-05T15:15:11;3.90;99.90
7684;DHT22;3884;48.616;12.872;2022-12-05T15:17:45;3.80;99.90
7684;DHT22;3884;48.616;12.872;2022-12-05T15:20:24;3.90;99.90
7684;DHT22;3884;48.616;12.872;2022-12-05T15:22:57;3.90;99.90
7684;DHT22;3884;48.616;12.872;2022-12-05T15:25:26;3.80;99.90
7684;DHT22;3884;48.616;12.872;2022-12-05T15:28:00;3.70;99.90
7684;DHT22;3884;48.616;12.872;2022-12-05T15:30:29;3.70;99.90
7684;DHT22;3884;48.616;12.872;2022-12-05T15:32:57;3.60;99.90
7684;DHT22;3884;48.616;12.872;2022-12-05T15:35:25;3.60;99.90
7684;DHT22;3884;48.616;12.872;2022-12-05T15:37:57;3.60;99.90
7684;DHT22;3884;48.616;12.872;2022-12-05T15:40:31;3.60;99.90
7684;DHT22;3884;48.616;12.872;2022-12-05T15:43:25;3.70;99.90
7684;DHT22;3884;48.616;12.872;2022-12-05T15:46:14;3.80;99.90
7684;DHT22;3884;48.616;12.872;2022-12-05T15:48:45;3.70;99.90
7684;DHT22;3884;48.616;12.872;2022-12-05T15:51:12;3.70;99.90
7684;DHT22;3884;48.616;12.872;2022-12-05T15:53:44;3.80;99.90
7684;DHT22;3884;48.616;12.872;2022-12-05T15:56:14;3.80;99.90
7684;DHT22;3884;48.616;12.872;2022-12-05T15:58:46;3.80;99.90
7684;DHT22;3884;48.616;12.872;2022-12-05T16:01:18;3.80;99.90
7684;DHT22;3884;48.616;12.872;2022-12-05T16:03:49;3.70;99.90
7684;DHT22;3884;48.616;12.872;2022-12-05T16:06:21;3.70;99.90
7684;DHT22;3884;48.616;12.872;2022-12-05T16:08:52;3.60;99.90
7684;DHT22;3884;48.616;12.872;2022-12-05T16:11:19;3.60;99.90
7684;DHT22;3884;48.616;12.872;2022-12-05T16:13:49;3.60;99.90
7684;DHT22;3884;48.616;12.872;2022-12-05T16:16:19;3.60;99.90
7684;DHT22;3884;48.616;12.872;2022-12-05T16:18:49;3.60;99.90
7684;DHT22;3884;48.616;12.872;2022-12-05T16:21:30;3.60;99.90
7684;DHT22;3884;48.616;12.872;2022-12-05T16:24:05;3.60;99.90
7684;DHT22;3884;48.616;12.872;2022-12-05T16:26:36;3.60;99.90
7684;DHT22;3884;48.616;12.872;2022-12-05T16:29:04;3.60;99.90
7684;DHT22;3884;48.616;12.872;2022-12-05T16:31:33;3.60;99.90
7684;DHT22;3884;48.616;12.872;2022-12-05T16:34:03;3.60;99.90
7684;DHT22;3884;48.616;12.872;2022-12-05T16:36:32;3.60;99.90
7684;DHT22;3884;48.616;12.872;2022-12-05T16:39:02;3.70;99.90
7684;DHT22;3884;48.616;12.872;2022-12-05T16:41:34;3.70;99.90